createdAt,value
2019-02-17T00:00:39.225Z,101249.45
2019-02-17T00:03:06.886Z,101246.05
2019-02-17T00:05:34.550Z,101254.07
2019-02-17T00:08:02.207Z,101249.32
2019-02-17T00:10:29.856Z,101250.00
2019-02-17T00:12:57.524Z,101260.78
2019-02-17T00:15:25.186Z,101246.33
2019-02-17T00:17:52.857Z,101245.16
2019-02-17T00:20:20.521Z,101253.13
2019-02-17T00:22:48.177Z,101246.87
2019-02-17T00:25:15.838Z,101247.47
2019-02-17T00:27:43.490Z,101250.19
2019-02-17T00:30:11.174Z,101242.77
2019-02-17T00:32:38.842Z,101241.66
2019-02-17T00:35:06.501Z,101245.74
2019-02-17T00:37:34.162Z,101249.83
2019-02-17T00:40:01.821Z,101256.72
2019-02-17T00:42:29.473Z,101256.39
2019-02-17T00:44:57.140Z,101249.77
2019-02-17T00:47:24.803Z,101251.84
2019-02-17T00:49:52.467Z,101247.81
2019-02-17T00:52:20.121Z,101257.44
2019-02-17T00:54:47.781Z,101251.75
2019-02-17T00:57:15.446Z,101246.63
2019-02-17T00:59:43.109Z,101251.55
2019-02-17T01:02:10.949Z,101255.43
2019-02-17T01:04:38.613Z,101256.09
2019-02-17T01:07:06.269Z,101261.75
2019-02-17T01:09:33.937Z,101253.08
2019-02-17T01:12:01.597Z,101257.01
2019-02-17T01:14:29.261Z,101257.20
2019-02-17T01:16:56.917Z,101262.88
2019-02-17T01:19:24.578Z,101258.36
2019-02-17T01:21:52.241Z,101258.38
2019-02-17T01:24:19.894Z,101263.33
2019-02-17T01:26:47.550Z,101262.03
2019-02-17T01:29:20.492Z,101260.70
2019-02-17T01:31:44.587Z,101256.19
2019-02-17T01:34:12.237Z,101260.44
2019-02-17T01:36:39.900Z,101254.91
2019-02-17T01:39:07.561Z,101255.16
2019-02-17T01:41:35.226Z,101255.06
2019-02-17T01:44:02.877Z,101258.27
2019-02-17T01:46:30.546Z,101254.20
2019-02-17T01:48:58.204Z,101248.78
2019-02-17T01:51:25.870Z,101247.03
2019-02-17T01:53:53.547Z,101250.91
2019-02-17T01:56:21.214Z,101243.45
2019-02-17T01:58:48.879Z,101246.37
2019-02-17T02:01:17.157Z,101239.25
2019-02-17T02:03:44.992Z,101242.22
2019-02-17T02:06:12.667Z,101248.11
2019-02-17T02:08:40.403Z,101246.48
2019-02-17T02:11:08.066Z,101242.16
2019-02-17T02:13:35.734Z,101247.88
2019-02-17T02:16:03.393Z,101245.84
2019-02-17T02:18:31.046Z,101242.77
2019-02-17T02:20:58.724Z,101237.95
2019-02-17T02:23:26.381Z,101232.83
2019-02-17T02:25:54.056Z,101235.00
2019-02-17T02:28:21.717Z,101226.13
2019-02-17T02:30:49.391Z,101227.25
2019-02-17T02:33:17.049Z,101229.03
2019-02-17T02:35:44.718Z,101230.83
2019-02-17T02:38:13.629Z,101236.69
2019-02-17T02:40:41.419Z,101231.07
2019-02-17T02:43:09.072Z,101232.87
2019-02-17T02:45:36.735Z,101228.79
2019-02-17T02:48:04.414Z,101229.03
2019-02-17T02:50:32.082Z,101232.83
2019-02-17T02:52:59.739Z,101230.30
2019-02-17T02:55:27.394Z,101225.47
2019-02-17T02:57:55.054Z,101229.02
2019-02-17T03:00:22.708Z,101232.95
2019-02-17T03:02:50.370Z,101233.07
2019-02-17T03:05:18.038Z,101233.12
2019-02-17T03:07:45.771Z,101225.21
2019-02-17T03:10:13.541Z,101234.13
2019-02-17T03:12:41.201Z,101229.30
2019-02-17T03:15:08.858Z,101230.54
2019-02-17T03:17:36.522Z,101233.60
2019-02-17T03:20:04.180Z,101236.77
2019-02-17T03:22:31.837Z,101228.02
2019-02-17T03:24:59.497Z,101232.34
2019-02-17T03:27:27.164Z,101239.88
2019-02-17T03:30:04.458Z,101241.52
2019-02-17T03:32:24.188Z,101232.36
2019-02-17T03:34:51.939Z,101230.57
2019-02-17T03:37:19.593Z,101233.36
2019-02-17T03:39:47.249Z,101231.31
2019-02-17T03:42:14.906Z,101231.42
2019-02-17T03:44:42.582Z,101234.63
2019-02-17T03:47:10.259Z,101235.27
2019-02-17T03:49:37.983Z,101239.09
2019-02-17T03:52:05.640Z,101229.78
2019-02-17T03:54:33.307Z,101237.66
2019-02-17T03:57:00.975Z,101234.09
2019-02-17T03:59:28.628Z,101240.17
2019-02-17T04:01:56.295Z,101232.81
2019-02-17T04:04:23.945Z,101228.34
2019-02-17T04:06:51.606Z,101225.95
2019-02-17T04:09:19.262Z,101225.70
2019-02-17T04:11:46.929Z,101223.67
2019-02-17T04:14:14.585Z,101216.80
2019-02-17T04:16:42.244Z,101223.83
2019-02-17T04:19:09.905Z,101218.35
2019-02-17T04:21:37.576Z,101217.22
2019-02-17T04:24:05.233Z,101228.77
2019-02-17T04:26:32.901Z,101223.44
2019-02-17T04:29:00.568Z,101224.45
2019-02-17T04:31:28.226Z,101226.75
2019-02-17T04:33:55.891Z,101222.52
2019-02-17T04:36:23.555Z,101220.52
2019-02-17T04:38:51.214Z,101220.34
2019-02-17T04:41:18.881Z,101220.87
2019-02-17T04:43:46.532Z,101225.72
2019-02-17T04:46:14.198Z,101215.27
2019-02-17T04:48:41.853Z,101214.51
2019-02-17T04:51:09.521Z,101215.64
2019-02-17T04:53:37.181Z,101220.64
2019-02-17T04:56:04.847Z,101229.78
2019-02-17T04:58:32.567Z,101228.25
2019-02-17T05:01:00.274Z,101225.54
2019-02-17T05:03:27.985Z,101221.87
2019-02-17T05:05:55.637Z,101225.12
2019-02-17T05:08:23.308Z,101226.39
2019-02-17T05:10:50.965Z,101227.06
2019-02-17T05:13:18.640Z,101230.75
2019-02-17T05:15:46.371Z,101240.55
2019-02-17T05:18:14.027Z,101235.05
2019-02-17T05:20:41.703Z,101236.44
2019-02-17T05:23:09.372Z,101231.50
2019-02-17T05:25:37.107Z,101234.80
2019-02-17T05:28:04.765Z,101229.72
2019-02-17T05:30:32.438Z,101230.63
2019-02-17T05:33:00.102Z,101231.27
2019-02-17T05:35:27.769Z,101239.14
2019-02-17T05:37:55.430Z,101242.55
2019-02-17T05:40:23.082Z,101242.77
2019-02-17T05:42:50.761Z,101244.04
2019-02-17T05:45:18.529Z,101244.41
2019-02-17T05:47:46.188Z,101246.19
2019-02-17T05:50:13.843Z,101240.20
2019-02-17T05:52:41.505Z,101239.45
2019-02-17T05:55:09.160Z,101242.23
2019-02-17T05:57:36.822Z,101251.95
2019-02-17T06:00:04.667Z,101247.25
2019-02-17T06:02:32.325Z,101250.23
2019-02-17T06:04:59.993Z,101251.70
2019-02-17T06:07:27.663Z,101250.86
2019-02-17T06:09:55.329Z,101250.08
2019-02-17T06:12:22.998Z,101249.09
2019-02-17T06:14:50.658Z,101253.10
2019-02-17T06:17:18.328Z,101260.53
2019-02-17T06:19:46.002Z,101257.53
2019-02-17T06:22:13.665Z,101256.52
2019-02-17T06:24:41.329Z,101258.58
2019-02-17T06:27:09.015Z,101264.06
2019-02-17T06:29:36.750Z,101262.85
2019-02-17T06:32:04.409Z,101272.09
2019-02-17T06:34:32.061Z,101273.11
2019-02-17T06:36:59.729Z,101274.01
2019-02-17T06:39:27.381Z,101274.93
2019-02-17T06:41:55.055Z,101275.07
2019-02-17T06:44:22.702Z,101268.58
2019-02-17T06:46:54.595Z,101275.59
2019-02-17T06:49:22.252Z,101280.09
2019-02-17T06:51:49.914Z,101269.97
2019-02-17T06:54:17.570Z,101266.42
2019-02-17T06:56:49.658Z,101264.42
2019-02-17T06:59:17.316Z,101269.13
2019-02-17T07:01:44.996Z,101266.61
2019-02-17T07:04:12.661Z,101271.55
2019-02-17T07:06:43.813Z,101271.45
2019-02-17T07:09:11.493Z,101277.68
2019-02-17T07:11:39.179Z,101272.95
2019-02-17T07:14:06.899Z,101279.17
2019-02-17T07:16:34.554Z,101277.39
2019-02-17T07:19:02.217Z,101278.66
2019-02-17T07:21:29.876Z,101276.20
2019-02-17T07:23:57.611Z,101279.09
2019-02-17T07:26:25.361Z,101275.69
2019-02-17T07:28:53.055Z,101283.66
2019-02-17T07:31:22.542Z,101277.64
2019-02-17T07:33:50.082Z,101280.10
2019-02-17T07:36:17.742Z,101276.92
2019-02-17T07:38:45.405Z,101271.58
2019-02-17T07:41:13.057Z,101271.26
2019-02-17T07:43:40.759Z,101270.30
2019-02-17T07:46:08.418Z,101276.17
2019-02-17T07:48:36.073Z,101279.12
2019-02-17T07:51:03.750Z,101274.53
2019-02-17T07:53:31.414Z,101275.46
2019-02-17T07:55:59.070Z,101273.84
2019-02-17T07:58:26.733Z,101278.70
2019-02-17T08:00:54.385Z,101266.98
2019-02-17T08:03:22.049Z,101266.25
2019-02-17T08:05:49.710Z,101258.54
2019-02-17T08:08:17.370Z,101263.84
2019-02-17T08:10:45.035Z,101266.45
2019-02-17T08:13:12.698Z,101267.86
2019-02-17T08:15:40.357Z,101264.95
2019-02-17T08:18:08.022Z,101255.25
2019-02-17T08:20:36.566Z,101257.55
2019-02-17T08:23:04.431Z,101251.39
2019-02-17T08:25:32.090Z,101253.77
2019-02-17T08:27:59.792Z,101250.13
2019-02-17T08:30:27.461Z,101241.34
2019-02-17T08:32:55.125Z,101243.54
2019-02-17T08:35:22.791Z,101242.06
2019-02-17T08:37:50.468Z,101243.16
2019-02-17T08:40:18.190Z,101247.29
2019-02-17T08:42:45.856Z,101244.27
2019-02-17T08:45:13.519Z,101234.48
2019-02-17T08:47:41.193Z,101241.55
2019-02-17T08:50:08.856Z,101239.30
2019-02-17T08:52:36.503Z,101240.22
2019-02-17T08:55:04.208Z,101232.72
2019-02-17T08:57:31.888Z,101234.63
2019-02-17T08:59:59.546Z,101229.30
2019-02-17T09:02:27.210Z,101227.20
2019-02-17T09:04:55.063Z,101229.59
2019-02-17T09:07:23.373Z,101229.95
2019-02-17T09:09:51.118Z,101234.64
2019-02-17T09:12:18.787Z,101230.55
2019-02-17T09:14:46.452Z,101226.47
2019-02-17T09:17:14.106Z,101232.49
2019-02-17T09:19:41.770Z,101221.58
2019-02-17T09:22:09.602Z,101219.71
2019-02-17T09:24:37.269Z,101230.54
2019-02-17T09:27:04.927Z,101223.28
2019-02-17T09:29:32.593Z,101217.27
2019-02-17T09:32:00.250Z,101220.45
2019-02-17T09:34:27.907Z,101222.72
2019-02-17T09:36:55.566Z,101210.27
2019-02-17T09:39:23.246Z,101208.35
2019-02-17T09:41:50.913Z,101216.56
2019-02-17T09:44:18.582Z,101211.02
2019-02-17T09:46:46.248Z,101214.36
2019-02-17T09:49:13.901Z,101214.80
2019-02-17T09:51:41.570Z,101204.05
2019-02-17T09:54:09.239Z,101206.87
2019-02-17T09:56:36.897Z,101204.05
2019-02-17T09:59:04.553Z,101204.36
2019-02-17T10:01:32.213Z,101208.23
2019-02-17T10:03:59.882Z,101200.81
2019-02-17T10:06:27.553Z,101200.14
2019-02-17T10:08:55.246Z,101200.33
2019-02-17T10:11:22.897Z,101195.25
2019-02-17T10:13:50.562Z,101191.02
2019-02-17T10:16:18.237Z,101185.83
2019-02-17T10:18:45.896Z,101185.16
2019-02-17T10:21:13.548Z,101187.69
2019-02-17T10:23:41.205Z,101185.61
2019-02-17T10:26:08.883Z,101186.05
2019-02-17T10:28:42.383Z,101182.52
2019-02-17T10:31:05.925Z,101183.36
2019-02-17T10:33:33.596Z,101173.84
2019-02-17T10:36:01.259Z,101168.95
2019-02-17T10:38:28.922Z,101166.61
2019-02-17T10:40:56.594Z,101161.67
2019-02-17T10:43:24.248Z,101164.38
2019-02-17T10:45:51.930Z,101162.66
2019-02-17T10:48:19.598Z,101160.74
2019-02-17T10:50:47.280Z,101155.41
2019-02-17T10:53:14.957Z,101154.81
2019-02-17T10:55:42.634Z,101152.33
2019-02-17T10:58:10.313Z,101139.09
2019-02-17T11:00:37.973Z,101139.11
2019-02-17T11:03:05.635Z,101143.55
2019-02-17T11:05:33.326Z,101135.98
2019-02-17T11:08:00.993Z,101133.52
2019-02-17T11:10:28.670Z,101130.10
2019-02-17T11:12:56.338Z,101124.92
2019-02-17T11:15:24.009Z,101121.03
2019-02-17T11:17:51.682Z,101119.84
2019-02-17T11:20:19.357Z,101104.77
2019-02-17T11:22:47.118Z,101107.03
2019-02-17T11:25:14.796Z,101101.00
2019-02-17T11:27:42.469Z,101102.41
2019-02-17T11:30:10.158Z,101089.21
2019-02-17T11:32:37.823Z,101081.09
2019-02-17T11:35:05.497Z,101080.50
2019-02-17T11:37:33.169Z,101078.48
2019-02-17T11:40:00.842Z,101074.02
2019-02-17T11:42:28.498Z,101077.14
2019-02-17T11:44:56.167Z,101070.06
2019-02-17T11:47:23.829Z,101066.32
2019-02-17T11:49:51.512Z,101066.99
2019-02-17T11:52:19.189Z,101064.56
2019-02-17T11:54:47.732Z,101061.16
2019-02-17T11:57:15.477Z,101051.02
2019-02-17T11:59:43.155Z,101054.77
2019-02-17T12:02:10.818Z,101041.92
2019-02-17T12:04:38.485Z,101042.91
2019-02-17T12:07:06.162Z,101045.80
2019-02-17T12:09:33.832Z,101040.39
2019-02-17T12:12:01.518Z,101036.02
2019-02-17T12:14:29.199Z,101036.41
2019-02-17T12:16:56.864Z,101034.69
2019-02-17T12:19:24.549Z,101036.50
2019-02-17T12:21:56.873Z,101033.16
2019-02-17T12:24:30.602Z,101029.54
2019-02-17T12:27:05.220Z,101023.66
2019-02-17T12:29:38.282Z,101019.62
2019-02-17T12:32:05.647Z,101019.02
2019-02-17T12:34:33.309Z,101011.81
2019-02-17T12:37:00.983Z,101013.99
2019-02-17T12:39:28.657Z,101008.14
2019-02-17T12:41:56.314Z,101010.50
2019-02-17T12:44:24.003Z,101004.86
2019-02-17T12:46:51.681Z,101002.50
2019-02-17T12:49:19.378Z,100999.82
2019-02-17T12:51:47.052Z,100999.84
2019-02-17T12:54:14.735Z,100996.00
2019-02-17T12:56:42.402Z,100996.36
2019-02-17T12:59:10.078Z,100989.37
2019-02-17T13:01:37.749Z,100987.70
2019-02-17T13:04:05.441Z,100981.75
2019-02-17T13:06:33.127Z,100981.55
2019-02-17T13:09:00.811Z,100978.06
2019-02-17T13:11:28.498Z,100976.55
2019-02-17T13:13:56.156Z,100981.98
2019-02-17T13:16:23.836Z,100973.48
2019-02-17T13:18:51.524Z,100975.14
2019-02-17T13:21:19.219Z,100972.31
2019-02-17T13:23:47.056Z,100971.09
2019-02-17T13:26:14.846Z,100967.87
2019-02-17T13:28:42.524Z,100968.56
2019-02-17T13:31:10.193Z,100962.27
2019-02-17T13:33:39.461Z,100960.69
2019-02-17T13:36:07.307Z,100961.91
2019-02-17T13:38:34.973Z,100958.45
2019-02-17T13:41:02.655Z,100957.95
2019-02-17T13:43:30.333Z,100961.57
2019-02-17T13:45:58.020Z,100956.98
2019-02-17T13:48:25.707Z,100954.55
2019-02-17T13:50:53.385Z,100953.50
2019-02-17T13:53:21.062Z,100948.84
2019-02-17T13:55:48.746Z,100953.35
2019-02-17T13:58:16.406Z,100952.89
2019-02-17T14:00:44.106Z,100946.75
2019-02-17T14:03:11.867Z,100947.14
2019-02-17T14:05:39.547Z,100939.41
2019-02-17T14:08:07.210Z,100945.30
2019-02-17T14:10:34.891Z,100942.09
2019-02-17T14:13:02.563Z,100935.01
2019-02-17T14:15:30.250Z,100940.58
2019-02-17T14:17:57.981Z,100939.34
2019-02-17T14:20:25.770Z,100936.20
2019-02-17T14:22:53.437Z,100932.09
2019-02-17T14:25:21.105Z,100937.23
2019-02-17T14:27:48.773Z,100933.31
2019-02-17T14:30:16.488Z,100935.86
2019-02-17T14:32:44.163Z,100933.59
2019-02-17T14:35:11.847Z,100937.08
2019-02-17T14:37:39.522Z,100925.81
2019-02-17T14:40:07.201Z,100932.36
2019-02-17T14:42:34.874Z,100931.61
2019-02-17T14:45:02.650Z,100923.61
2019-02-17T14:47:30.521Z,100918.20
2019-02-17T14:49:58.198Z,100921.70
2019-02-17T14:52:25.979Z,100909.30
2019-02-17T14:54:53.658Z,100920.88
2019-02-17T14:57:21.339Z,100911.70
2019-02-17T14:59:49.006Z,100912.17
2019-02-17T15:02:16.700Z,100910.59
2019-02-17T15:04:44.399Z,100911.34
2019-02-17T15:07:12.089Z,100909.69
2019-02-17T15:09:39.766Z,100906.58
2019-02-17T15:12:07.448Z,100912.16
2019-02-17T15:14:35.097Z,100905.39
2019-02-17T15:17:02.795Z,100898.84
2019-02-17T15:19:30.457Z,100899.79
2019-02-17T15:21:58.159Z,100903.30
2019-02-17T15:24:25.911Z,100894.89
2019-02-17T15:26:53.603Z,100890.47
2019-02-17T15:29:21.281Z,100891.87
2019-02-17T15:31:48.954Z,100892.13
2019-02-17T15:34:18.924Z,100881.35
2019-02-17T15:36:46.087Z,100880.02
2019-02-17T15:39:13.869Z,100877.20
2019-02-17T15:41:41.534Z,100872.56
2019-02-17T15:44:09.209Z,100872.72
2019-02-17T15:46:36.893Z,100868.45
2019-02-17T15:49:04.558Z,100864.94
2019-02-17T15:51:32.227Z,100862.45
2019-02-17T15:53:59.898Z,100859.23
2019-02-17T15:56:27.566Z,100865.80
2019-02-17T15:58:55.240Z,100871.46
2019-02-17T16:01:22.927Z,100865.80
2019-02-17T16:03:50.625Z,100866.69
2019-02-17T16:06:18.301Z,100865.56
2019-02-17T16:08:45.973Z,100859.77
2019-02-17T16:11:13.650Z,100858.03
2019-02-17T16:13:41.333Z,100858.72
2019-02-17T16:16:09.451Z,100863.09
2019-02-17T16:18:37.268Z,100858.03
2019-02-17T16:21:04.946Z,100856.43
2019-02-17T16:23:32.617Z,100867.98
2019-02-17T16:26:00.285Z,100862.05
2019-02-17T16:28:27.976Z,100874.63
2019-02-17T16:30:55.651Z,100869.18
2019-02-17T16:33:23.339Z,100866.66
2019-02-17T16:35:51.006Z,100868.64
2019-02-17T16:38:18.672Z,100867.58
2019-02-17T16:40:46.352Z,100866.98
2019-02-17T16:43:14.017Z,100878.38
2019-02-17T16:45:41.678Z,100880.17
2019-02-17T16:48:09.353Z,100885.42
2019-02-17T16:50:37.021Z,100885.25
2019-02-17T16:53:04.693Z,100890.69
2019-02-17T16:55:32.358Z,100882.77
2019-02-17T16:58:00.025Z,100877.55
2019-02-17T17:00:27.700Z,100883.45
2019-02-17T17:02:55.370Z,100885.61
2019-02-17T17:05:23.045Z,100885.63
2019-02-17T17:07:50.714Z,100884.81
2019-02-17T17:10:18.378Z,100887.12
2019-02-17T17:12:46.051Z,100888.72
2019-02-17T17:15:13.701Z,100885.51
2019-02-17T17:17:41.373Z,100890.25
2019-02-17T17:20:09.039Z,100884.63
2019-02-17T17:22:36.685Z,100886.13
2019-02-17T17:25:04.341Z,100881.44
2019-02-17T17:27:32.010Z,100885.38
2019-02-17T17:29:59.670Z,100886.61
2019-02-17T17:32:27.328Z,100882.20
2019-02-17T17:34:58.838Z,100881.05
2019-02-17T17:37:24.369Z,100882.34
2019-02-17T17:39:52.039Z,100885.51
2019-02-17T17:42:19.689Z,100882.98
2019-02-17T17:44:47.360Z,100879.55
2019-02-17T17:47:15.026Z,100883.73
2019-02-17T17:49:42.691Z,100882.04
2019-02-17T17:52:10.349Z,100889.73
2019-02-17T17:54:38.045Z,100882.22
2019-02-17T17:57:05.716Z,100882.48
2019-02-17T17:59:33.375Z,100889.23
2019-02-17T18:02:01.030Z,100878.84
2019-02-17T18:04:28.693Z,100878.75
2019-02-17T18:06:57.113Z,100882.27
2019-02-17T18:09:25.009Z,100881.69
2019-02-17T18:11:52.680Z,100877.58
2019-02-17T18:14:20.342Z,100878.69
2019-02-17T18:16:48.004Z,100882.95
2019-02-17T18:19:15.670Z,100884.05
2019-02-17T18:21:43.329Z,100883.56
2019-02-17T18:24:10.999Z,100889.91
2019-02-17T18:26:38.662Z,100882.42
2019-02-17T18:29:06.318Z,100884.11
2019-02-17T18:31:33.976Z,100888.42
2019-02-17T18:34:01.660Z,100887.39
2019-02-17T18:36:29.383Z,100893.77
2019-02-17T18:38:57.238Z,100896.61
2019-02-17T18:41:24.906Z,100901.53
2019-02-17T18:43:52.575Z,100900.89
2019-02-17T18:46:20.232Z,100905.19
2019-02-17T18:48:47.893Z,100905.89
2019-02-17T18:51:15.560Z,100907.97
2019-02-17T18:53:43.247Z,100903.80
2019-02-17T18:56:10.908Z,100911.13
2019-02-17T18:58:38.577Z,100906.14
2019-02-17T19:01:06.234Z,100901.55
2019-02-17T19:03:33.892Z,100902.66
2019-02-17T19:06:01.550Z,100904.92
2019-02-17T19:08:29.231Z,100902.80
2019-02-17T19:10:56.891Z,100906.41
2019-02-17T19:13:24.546Z,100900.19
2019-02-17T19:15:53.791Z,100897.81
2019-02-17T19:18:21.578Z,100899.25
2019-02-17T19:20:49.256Z,100895.48
2019-02-17T19:23:16.926Z,100897.02
2019-02-17T19:25:44.592Z,100897.32
2019-02-17T19:28:12.311Z,100898.93
2019-02-17T19:30:39.997Z,100901.47
2019-02-17T19:33:07.655Z,100899.00
2019-02-17T19:35:42.086Z,100898.45
2019-02-17T19:38:04.699Z,100897.28
2019-02-17T19:40:32.365Z,100900.31
2019-02-17T19:43:00.024Z,100902.13
2019-02-17T19:45:27.689Z,100901.80
2019-02-17T19:47:55.362Z,100899.83
2019-02-17T19:50:23.036Z,100901.80
2019-02-17T19:52:50.699Z,100903.48
2019-02-17T19:55:18.377Z,100895.71
2019-02-17T19:57:46.037Z,100894.63
2019-02-17T20:00:13.697Z,100896.44
2019-02-17T20:02:51.102Z,100893.97
2019-02-17T20:05:20.549Z,100897.95
2019-02-17T20:07:48.203Z,100907.27
2019-02-17T20:10:15.861Z,100898.88
2019-02-17T20:12:43.524Z,100903.28
2019-02-17T20:15:11.184Z,100902.55
2019-02-17T20:17:38.838Z,100912.25
2019-02-17T20:20:06.510Z,100902.97
2019-02-17T20:22:34.166Z,100911.56
2019-02-17T20:25:01.910Z,100909.43
2019-02-17T20:27:29.565Z,100910.97
2019-02-17T20:29:57.225Z,100908.20
2019-02-17T20:32:24.873Z,100902.48
2019-02-17T20:34:52.541Z,100908.55
2019-02-17T20:37:20.197Z,100904.16
2019-02-17T20:39:47.853Z,100900.45
2019-02-17T20:42:15.508Z,100897.63
2019-02-17T20:44:43.178Z,100903.09
2019-02-17T20:47:10.842Z,100901.36
2019-02-17T20:49:38.508Z,100891.99
2019-02-17T20:52:06.172Z,100888.02
2019-02-17T20:54:33.839Z,100894.25
2019-02-17T20:57:01.494Z,100891.81
2019-02-17T20:59:29.167Z,100893.42
2019-02-17T21:01:56.826Z,100891.98
2019-02-17T21:04:24.494Z,100892.66
2019-02-17T21:06:52.162Z,100897.80
2019-02-17T21:09:19.813Z,100886.03
2019-02-17T21:11:47.473Z,100896.00
2019-02-17T21:14:15.134Z,100898.17
2019-02-17T21:16:42.802Z,100895.16
2019-02-17T21:19:10.461Z,100901.69
2019-02-17T21:21:38.125Z,100899.56
2019-02-17T21:24:05.787Z,100895.83
2019-02-17T21:26:33.449Z,100902.47
2019-02-17T21:29:01.103Z,100899.02
2019-02-17T21:31:28.770Z,100900.29
2019-02-17T21:33:56.427Z,100894.37
2019-02-17T21:36:24.095Z,100891.53
2019-02-17T21:38:51.753Z,100893.59
2019-02-17T21:41:19.423Z,100894.00
2019-02-17T21:43:47.077Z,100887.66
2019-02-17T22:00:51.077Z,100890.38
2019-02-17T22:03:18.742Z,100888.52
2019-02-17T22:05:46.408Z,100891.00
2019-02-17T22:08:14.077Z,100879.47
2019-02-17T22:10:41.732Z,100881.28
2019-02-17T22:13:09.401Z,100875.16
2019-02-17T22:15:37.066Z,100871.11
2019-02-17T22:18:04.725Z,100877.83
2019-02-17T22:20:32.401Z,100881.80
2019-02-17T22:23:00.054Z,100874.23
2019-02-17T22:25:27.746Z,100873.34
2019-02-17T22:27:55.403Z,100873.56
2019-02-17T22:30:23.071Z,100874.75
2019-02-17T22:32:50.725Z,100874.31
2019-02-17T22:35:18.388Z,100878.24
2019-02-17T22:37:46.042Z,100874.81
2019-02-17T22:40:13.714Z,100880.92
2019-02-17T22:42:41.365Z,100883.68
2019-02-17T22:45:09.038Z,100883.57
2019-02-17T22:47:36.706Z,100882.91
2019-02-17T22:50:04.364Z,100881.84
2019-02-17T22:52:32.031Z,100875.05
2019-02-17T22:54:59.693Z,100878.09
2019-02-17T22:57:27.352Z,100885.86
2019-02-17T22:59:55.005Z,100885.56
2019-02-17T23:02:22.675Z,100887.64
2019-02-17T23:04:50.333Z,100892.96
2019-02-17T23:07:17.995Z,100887.76
2019-02-17T23:09:45.657Z,100889.52
2019-02-17T23:12:13.317Z,100891.95
2019-02-17T23:14:41.060Z,100884.58
2019-02-17T23:17:08.736Z,100887.44
2019-02-17T23:19:36.395Z,100890.59
2019-02-17T23:22:04.058Z,100894.05
2019-02-17T23:24:31.729Z,100889.90
2019-02-17T23:26:59.386Z,100893.74
2019-02-17T23:29:27.039Z,100893.02
2019-02-17T23:31:54.710Z,100897.36
2019-02-17T23:34:22.374Z,100891.63
2019-02-17T23:36:50.039Z,100895.85
2019-02-17T23:39:17.708Z,100894.06
2019-02-17T23:41:45.378Z,100901.93
2019-02-17T23:44:13.021Z,100904.36
2019-02-17T23:46:40.685Z,100897.72
2019-02-17T23:49:08.349Z,100898.89
2019-02-17T23:51:36.021Z,100900.30
2019-02-17T23:54:03.674Z,100898.30
2019-02-17T23:56:31.336Z,100895.30
2019-02-17T23:58:58.993Z,100900.92
